Terminal Aerodrome Forecast
Issued by NWS Chicago, IL

Home | Current Version | Previous Version | Graphics & Text | Print | Product List | Glossary On
Versions: 1 2 3 4 5 6 7 8 9 10 11 12 13 14 15 16 17 18 19 20 21 22 23 24 25 26 27 28 29 30 31 32
000
FTUS43 KLOT 220904 AAA
TAFRFD
TAF AMD
KRFD 220904Z 2209/2306 25007KT P6SM FEW030 OVC200
     FM221200 27005KT 4SM BR SCT015 BKN250
     FM221400 VRB04KT P6SM FEW050 SCT250
     FM222100 VRB04KT P6SM SCT250=

USA.gov is the U.S. government's official web portal to all federal, state and local government web resources and services.